This is the latest recevied weather packets stored in our database for station/object WB4ROX. If no packets are shown the sender has not sent any weather packets the latest 1 day(s).
| Time | Temp. | Humidity | Pressure | Rain* | Wind** | Luminosity | Snow |
|---|---|---|---|---|---|---|---|
| 1778095219 | 17.22° C | 67% | 1017.3 hPa | 0 mm | - | 590 W/m² | - |
| 1778094916 | 17.22° C | 67% | 1016.9 hPa | 0 mm | - | 595 W/m² | - |
| 1778093400 | 16.67° C | 68% | 1016.6 hPa | 0 mm | - | 526 W/m² | - |
| 1778093097 | 17.22° C | 67% | 1016.7 hPa | 0 mm | - | 494 W/m² | - |
| 1778092490 | 16.67° C | 65% | 1016.9 hPa | 0 mm | - | 521 W/m² | - |
| 1778092187 | 17.22° C | 63% | 1016.7 hPa | 0 mm | - | 521 W/m² | - |
| 1778090976 | 16.67° C | 67% | 1016.4 hPa | 0 mm | - | 438 W/m² | - |
| 1778090066 | 15.56° C | 71% | 1016.8 hPa | 0 mm | - | 336 W/m² | - |
| 1778088248 | 14.44° C | 81% | 1017 hPa | 0 mm | - | 305 W/m² | - |
| 1778087036 | 13.33° C | 85% | 1017 hPa | 0 mm | - | 480 W/m² | - |
| 1778084612 | 12.22° C | 89% | 1018.3 hPa | 1.78 mm | - | 138 W/m² | - |
| 1778084309 | 12.78° C | 88% | 1018.6 hPa | 3.05 mm | - | 137 W/m² | - |
| 1778083704 | 12.78° C | 89% | 1018.6 hPa | 0 mm | - | 102 W/m² | - |
| 1778083099 | 13.33° C | 84% | 1018.5 hPa | 0 mm | - | 43 W/m² | - |
| 1778080457 | 15.56° C | 74% | 1017.7 hPa | 0 mm | - | 166 W/m² | - |
| 1778077127 | 14.44° C | 79% | 1016.9 hPa | 0 mm | - | 137 W/m² | - |
| 1778076219 | 14.44° C | 79% | 1016.8 hPa | 0 mm | - | 63 W/m² | - |
| 1778074096 | 13.89° C | 79% | 1016.7 hPa | 0 mm | - | 113 W/m² | - |
| 1778073187 | 13.33° C | 79% | 1016.3 hPa | 0 mm | - | 46 W/m² | - |
| 1778071675 | 12.78° C | 80% | 1016.4 hPa | 0 mm | - | 104 W/m² | - |
| 1778071372 | 12.78° C | 80% | 1016.4 hPa | 0 mm | - | 121 W/m² | - |
| 1778070768 | 12.78° C | 80% | 1016.1 hPa | 0 mm | - | 122 W/m² | - |
| 1778069556 | 11.67° C | 81% | 1016 hPa | 0 mm | - | 116 W/m² | - |
| 1778068649 | 12.22° C | 80% | 1015.9 hPa | 0 mm | - | 88 W/m² | - |
| 1778068347 | 12.22° C | 80% | 1016 hPa | 0 mm | - | 83 W/m² | - |
* Rain latest hour (hover to see other rain measurements)
** Current wind speed in m/s (hover to see current wind gust speed)